createdAt,value
2023-04-21T00:01:00.040Z,101450.09
2023-04-21T00:03:28.181Z,101438.47
2023-04-21T00:06:01.545Z,101433.38
2023-04-21T00:08:28.078Z,101442.41
2023-04-21T00:10:54.578Z,101436.63
2023-04-21T00:13:21.061Z,101439.31
2023-04-21T00:15:47.589Z,101433.56
2023-04-21T00:18:14.195Z,101435.63
2023-04-21T00:20:41.543Z,101439.16
2023-04-21T00:23:10.882Z,101428.97
2023-04-21T00:25:37.417Z,101438.41
2023-04-21T00:28:05.040Z,101437.66
2023-04-21T00:30:31.527Z,101436.88
2023-04-21T00:32:58.229Z,101437.75
2023-04-21T00:35:24.746Z,101423.69
2023-04-21T00:37:54.079Z,101436.06
2023-04-21T00:40:20.610Z,101425.97
2023-04-21T00:42:47.116Z,101427.75
2023-04-21T00:45:15.397Z,101434.63
2023-04-21T00:47:42.725Z,101429.94
2023-04-21T00:50:11.431Z,101430.28
2023-04-21T00:52:40.512Z,101441.59
2023-04-21T00:55:08.350Z,101425.13
2023-04-21T00:57:36.857Z,101432.06
2023-04-21T01:00:06.573Z,101428.09
2023-04-21T01:02:35.596Z,101428.25
2023-04-21T01:05:02.231Z,101422.56
2023-04-21T01:07:28.760Z,101418.53
2023-04-21T01:09:56.067Z,101430.00
2023-04-21T01:12:23.073Z,101420.34
2023-04-21T01:14:50.559Z,101422.91
2023-04-21T01:17:18.879Z,101426.69
2023-04-21T01:19:47.486Z,101426.63
2023-04-21T01:22:15.307Z,101414.84
2023-04-21T01:24:47.264Z,101423.28
2023-04-21T01:27:16.553Z,101418.53
2023-04-21T01:29:43.797Z,101411.50
2023-04-21T01:32:13.225Z,101414.66
2023-04-21T01:34:40.975Z,101408.44
2023-04-21T01:37:09.741Z,101407.78
2023-04-21T01:39:40.839Z,101403.09
2023-04-21T01:42:07.368Z,101404.75
2023-04-21T01:44:34.188Z,101405.38
2023-04-21T01:47:00.805Z,101404.81
2023-04-21T01:49:27.341Z,101409.50
2023-04-21T01:51:53.855Z,101401.41
2023-04-21T01:54:20.440Z,101402.25
2023-04-21T01:56:47.100Z,101403.03
2023-04-21T01:59:14.864Z,101396.63
2023-04-21T02:01:41.378Z,101397.16
2023-04-21T02:04:08.166Z,101398.66
2023-04-21T02:06:35.904Z,101401.38
2023-04-21T02:09:02.480Z,101396.16
2023-04-21T02:11:31.164Z,101395.63
2023-04-21T02:13:57.712Z,101393.84
2023-04-21T02:16:27.199Z,101397.63
2023-04-21T02:18:54.400Z,101386.69
2023-04-21T02:21:24.366Z,101382.00
2023-04-21T02:23:52.019Z,101396.06
2023-04-21T02:26:19.091Z,101382.06
2023-04-21T02:28:45.994Z,101384.09
2023-04-21T02:31:15.573Z,101386.50
2023-04-21T02:33:42.312Z,101384.63
2023-04-21T02:36:11.243Z,101388.41
2023-04-21T02:38:37.737Z,101389.19
2023-04-21T02:41:04.240Z,101393.41
2023-04-21T02:43:30.878Z,101391.78
2023-04-21T02:45:57.435Z,101395.13
2023-04-21T02:48:23.940Z,101388.53
2023-04-21T02:50:53.199Z,101388.88
2023-04-21T02:53:20.612Z,101381.88
2023-04-21T02:55:47.129Z,101391.44
2023-04-21T02:58:13.679Z,101389.44
2023-04-21T03:00:41.628Z,101379.53
2023-04-21T03:03:08.585Z,101383.19
2023-04-21T03:05:35.381Z,101385.16
2023-04-21T03:08:01.878Z,101380.78
2023-04-21T03:10:28.370Z,101376.66
2023-04-21T03:12:56.386Z,101378.22
2023-04-21T03:15:23.935Z,101379.47
2023-04-21T03:17:50.814Z,101379.63
2023-04-21T03:20:18.007Z,101381.25
2023-04-21T03:22:44.573Z,101382.00
2023-04-21T03:25:11.954Z,101382.00
2023-04-21T03:27:38.551Z,101380.81
2023-04-21T03:30:06.706Z,101391.44
2023-04-21T03:32:33.291Z,101388.28
2023-04-21T03:35:00.036Z,101383.84
2023-04-21T03:37:26.599Z,101392.19
2023-04-21T03:39:53.217Z,101378.78
2023-04-21T03:42:20.202Z,101384.31
2023-04-21T03:44:46.701Z,101386.25
2023-04-21T03:47:13.245Z,101379.94
2023-04-21T03:49:39.788Z,101376.09
2023-04-21T03:52:06.277Z,101376.50
2023-04-21T03:54:32.780Z,101385.22
2023-04-21T03:56:59.282Z,101381.19
2023-04-21T03:59:25.996Z,101381.25
2023-04-21T04:01:52.469Z,101379.66
2023-04-21T04:04:19.262Z,101389.84
2023-04-21T04:06:45.973Z,101399.94
2023-04-21T04:09:12.496Z,101389.84
2023-04-21T04:11:38.950Z,101388.69
2023-04-21T04:14:05.520Z,101382.84
2023-04-21T04:16:34.289Z,101385.88
2023-04-21T04:19:00.830Z,101395.09
2023-04-21T04:21:28.551Z,101392.22
2023-04-21T04:23:55.407Z,101390.22
2023-04-21T04:26:25.162Z,101399.16
2023-04-21T04:28:53.077Z,101396.16
2023-04-21T04:31:19.716Z,101402.81
2023-04-21T04:33:46.628Z,101398.38
2023-04-21T04:36:13.315Z,101390.38
2023-04-21T04:38:40.322Z,101396.22
2023-04-21T04:41:08.979Z,101395.72
2023-04-21T04:43:39.360Z,101403.16
2023-04-21T04:46:06.400Z,101396.19
2023-04-21T04:48:33.088Z,101403.28
2023-04-21T04:50:59.559Z,101405.19
2023-04-21T04:53:28.266Z,101397.50
2023-04-21T04:55:55.022Z,101401.91
2023-04-21T04:58:22.303Z,101398.75
2023-04-21T05:00:48.845Z,101408.22
2023-04-21T05:03:15.477Z,101418.53
2023-04-21T05:05:42.075Z,101411.44
2023-04-21T05:08:08.826Z,101406.91
2023-04-21T05:10:35.501Z,101404.09
2023-04-21T05:13:02.035Z,101409.16
2023-04-21T05:15:28.512Z,101412.94
2023-04-21T05:17:55.116Z,101402.75
2023-04-21T05:20:21.607Z,101407.09
2023-04-21T05:22:48.095Z,101406.66
2023-04-21T05:25:15.793Z,101408.81
2023-04-21T05:27:42.878Z,101410.97
2023-04-21T05:30:09.834Z,101403.78
2023-04-21T05:32:36.419Z,101404.81
2023-04-21T05:35:03.074Z,101405.75
2023-04-21T05:37:29.542Z,101409.44
2023-04-21T05:39:56.127Z,101407.53
2023-04-21T05:42:22.803Z,101413.53
2023-04-21T05:44:49.373Z,101419.72
2023-04-21T05:47:15.859Z,101409.44
2023-04-21T05:49:44.201Z,101403.88
2023-04-21T05:52:10.841Z,101406.50
2023-04-21T05:54:37.637Z,101411.75
2023-04-21T05:57:05.646Z,101410.91
2023-04-21T05:59:32.171Z,101418.09
2023-04-21T06:01:58.752Z,101413.69
2023-04-21T06:04:25.745Z,101417.03
2023-04-21T06:06:52.641Z,101412.50
2023-04-21T06:09:19.352Z,101411.03
2023-04-21T06:11:46.009Z,101402.78
2023-04-21T06:14:12.571Z,101402.88
2023-04-21T06:16:39.110Z,101411.47
2023-04-21T06:19:05.738Z,101401.09
2023-04-21T06:21:32.766Z,101408.34
2023-04-21T06:23:59.298Z,101406.97
2023-04-21T06:26:25.933Z,101409.09
2023-04-21T06:28:52.472Z,101403.19
2023-04-21T06:31:20.020Z,101402.16
2023-04-21T06:33:46.614Z,101398.69
2023-04-21T06:36:13.096Z,101398.13
2023-04-21T06:38:41.638Z,101389.91
2023-04-21T06:41:08.122Z,101396.63
2023-04-21T06:43:34.647Z,101393.69
2023-04-21T06:46:01.188Z,101390.97
2023-04-21T06:48:27.928Z,101389.84
2023-04-21T06:50:54.424Z,101397.19
2023-04-21T06:53:21.766Z,101389.59
2023-04-21T06:55:48.628Z,101390.56
2023-04-21T06:58:15.743Z,101390.88
2023-04-21T07:00:42.584Z,101385.91
2023-04-21T07:03:09.368Z,101387.97
2023-04-21T07:05:36.094Z,101387.16
2023-04-21T07:08:02.630Z,101375.44
2023-04-21T07:10:29.466Z,101390.25
2023-04-21T07:12:56.201Z,101383.44
2023-04-21T07:15:22.799Z,101377.41
2023-04-21T07:17:49.427Z,101388.88
2023-04-21T07:20:17.520Z,101387.41
2023-04-21T07:22:44.092Z,101387.91
2023-04-21T07:25:12.501Z,101381.63
2023-04-21T07:27:39.199Z,101386.44
2023-04-21T07:30:06.836Z,101389.88
2023-04-21T07:32:33.957Z,101378.06
2023-04-21T07:35:01.996Z,101382.94
2023-04-21T07:37:28.756Z,101376.94
2023-04-21T07:39:55.330Z,101374.56
2023-04-21T07:42:22.505Z,101371.66
2023-04-21T07:44:49.211Z,101367.63
2023-04-21T07:47:15.747Z,101367.25
2023-04-21T07:49:42.287Z,101372.81
2023-04-21T07:52:09.061Z,101369.56
2023-04-21T07:54:35.685Z,101363.91
2023-04-21T07:57:02.628Z,101366.59
2023-04-21T07:59:29.375Z,101362.09
2023-04-21T08:01:56.565Z,101366.03
2023-04-21T08:04:23.483Z,101376.34
2023-04-21T08:06:50.630Z,101360.34
2023-04-21T08:09:17.682Z,101373.50
2023-04-21T08:11:44.624Z,101369.28
2023-04-21T08:14:11.881Z,101364.41
2023-04-21T08:16:38.934Z,101362.69
2023-04-21T08:19:06.807Z,101363.66
2023-04-21T08:21:33.502Z,101370.41
2023-04-21T08:24:00.318Z,101364.75
2023-04-21T08:26:26.887Z,101369.16
2023-04-21T08:28:53.412Z,101361.41
2023-04-21T08:31:20.088Z,101368.41
2023-04-21T08:33:57.945Z,101356.53
2023-04-21T08:36:29.914Z,101350.50
2023-04-21T08:38:57.601Z,101351.50
2023-04-21T08:41:24.895Z,101351.56
2023-04-21T08:43:51.483Z,101356.25
2023-04-21T08:46:19.174Z,101349.94
2023-04-21T08:48:47.034Z,101342.69
2023-04-21T08:51:16.457Z,101349.13
2023-04-21T08:53:43.537Z,101345.81
2023-04-21T08:56:11.600Z,101339.72
2023-04-21T08:58:38.611Z,101341.31
2023-04-21T09:01:05.347Z,101346.06
2023-04-21T09:03:32.096Z,101346.31
2023-04-21T09:06:01.064Z,101342.16
2023-04-21T09:08:29.896Z,101347.03
2023-04-21T09:10:56.827Z,101349.66
2023-04-21T09:13:30.738Z,101344.31
2023-04-21T09:15:57.244Z,101338.56
2023-04-21T09:18:25.311Z,101333.41
2023-04-21T09:21:05.060Z,101342.00
2023-04-21T09:23:31.569Z,101332.53
2023-04-21T09:25:58.151Z,101335.13
2023-04-21T09:28:31.896Z,101344.31
2023-04-21T09:30:58.437Z,101331.16
2023-04-21T09:33:32.230Z,101328.56
2023-04-21T09:36:03.305Z,101325.28
2023-04-21T09:38:30.129Z,101329.19
2023-04-21T09:40:57.985Z,101324.38
2023-04-21T09:43:24.469Z,101326.19
2023-04-21T09:45:51.332Z,101325.75
2023-04-21T09:48:19.036Z,101314.25
2023-04-21T09:53:18.667Z,101329.66
2023-04-21T09:55:48.370Z,101325.25
2023-04-21T09:58:16.371Z,101325.91
2023-04-21T10:00:43.191Z,101308.47
2023-04-21T10:03:12.122Z,101316.84
2023-04-21T10:05:42.130Z,101322.00
2023-04-21T10:08:11.440Z,101319.09
2023-04-21T10:10:38.847Z,101309.91
2023-04-21T10:13:05.730Z,101305.47
2023-04-21T10:15:38.770Z,101304.22
2023-04-21T10:18:23.807Z,101300.25
2023-04-21T10:20:52.205Z,101303.84
2023-04-21T10:23:39.278Z,101294.53
2023-04-21T10:26:09.856Z,101298.88
2023-04-21T10:28:56.470Z,101299.31
2023-04-21T10:31:27.125Z,101283.75
2023-04-21T10:34:05.835Z,101285.31
2023-04-21T10:36:34.948Z,101281.66
2023-04-21T10:39:06.103Z,101289.06
2023-04-21T10:41:34.406Z,101281.38
2023-04-21T10:44:01.932Z,101288.66
2023-04-21T10:46:38.696Z,101278.53
2023-04-21T10:49:23.780Z,101281.41
2023-04-21T10:51:59.316Z,101279.97
2023-04-21T10:54:45.793Z,101275.88
2023-04-21T10:57:20.534Z,101264.38
2023-04-21T10:59:48.101Z,101283.06
2023-04-21T11:02:15.844Z,101273.56
2023-04-21T11:04:48.804Z,101262.06
2023-04-21T11:07:19.017Z,101251.16
2023-04-21T11:09:47.378Z,101248.03
2023-04-21T11:12:15.547Z,101249.22
2023-04-21T11:14:44.421Z,101245.25
2023-04-21T11:17:13.266Z,101250.47
2023-04-21T11:19:40.503Z,101230.78
2023-04-21T11:22:07.091Z,101241.22
2023-04-21T11:24:34.113Z,101236.19
2023-04-21T11:27:01.990Z,101238.50
2023-04-21T11:29:31.489Z,101233.13
2023-04-21T11:31:59.190Z,101231.91
2023-04-21T11:34:26.433Z,101232.06
2023-04-21T11:36:53.293Z,101216.53
2023-04-21T11:39:22.199Z,101215.78
2023-04-21T11:41:50.427Z,101211.72
2023-04-21T11:44:32.253Z,101212.16
2023-04-21T11:46:58.940Z,101213.19
2023-04-21T11:49:26.348Z,101210.28
2023-04-21T11:51:52.945Z,101209.25
2023-04-21T11:54:22.011Z,101196.91
2023-04-21T11:56:48.808Z,101204.16
2023-04-21T11:59:19.757Z,101207.75
2023-04-21T12:01:47.557Z,101210.28
2023-04-21T12:04:16.622Z,101212.28
2023-04-21T12:06:45.305Z,101204.88
2023-04-21T12:09:19.321Z,101196.03
2023-04-21T12:11:53.966Z,101201.66
2023-04-21T12:14:22.295Z,101192.69
2023-04-21T12:16:58.456Z,101197.09
2023-04-21T12:19:42.298Z,101198.78
2023-04-21T12:22:16.305Z,101201.91
2023-04-21T12:24:43.312Z,101194.13
2023-04-21T12:27:10.267Z,101180.34
2023-04-21T12:29:38.416Z,101189.75
2023-04-21T12:32:06.761Z,101172.94
2023-04-21T12:34:33.643Z,101185.00
2023-04-21T12:37:00.194Z,101179.78
2023-04-21T12:39:26.961Z,101178.25
2023-04-21T12:41:53.567Z,101173.97
2023-04-21T12:44:20.211Z,101177.19
2023-04-21T12:46:48.863Z,101177.28
2023-04-21T12:49:16.468Z,101174.41
2023-04-21T12:51:43.386Z,101170.50
2023-04-21T12:54:13.128Z,101168.53
2023-04-21T12:56:40.280Z,101164.09
2023-04-21T12:59:07.374Z,101155.34
2023-04-21T13:01:34.094Z,101151.94
2023-04-21T13:04:01.277Z,101155.53
2023-04-21T13:06:28.710Z,101154.75
2023-04-21T13:08:56.100Z,101144.63
2023-04-21T13:11:22.776Z,101156.94
2023-04-21T13:13:49.535Z,101149.00
2023-04-21T13:16:16.864Z,101139.66
2023-04-21T13:18:45.191Z,101149.13
2023-04-21T13:21:11.844Z,101154.91
2023-04-21T13:23:38.753Z,101153.06
2023-04-21T13:26:05.407Z,101139.69
2023-04-21T13:28:32.357Z,101148.16
2023-04-21T13:30:59.069Z,101135.41
2023-04-21T13:33:26.014Z,101131.13
2023-04-21T13:35:52.591Z,101129.13
2023-04-21T13:38:20.660Z,101129.72
2023-04-21T13:40:48.928Z,101125.25
2023-04-21T13:43:15.763Z,101131.66
2023-04-21T13:45:42.294Z,101117.00
2023-04-21T13:48:08.865Z,101114.25
2023-04-21T13:50:35.414Z,101105.97
2023-04-21T13:53:02.038Z,101102.91
2023-04-21T13:55:28.574Z,101095.44
2023-04-21T13:57:55.369Z,101100.13
2023-04-21T14:00:22.246Z,101094.56
2023-04-21T14:02:49.385Z,101099.06
2023-04-21T14:07:43.215Z,101093.75
2023-04-21T14:10:11.403Z,101080.63
2023-04-21T14:12:38.026Z,101077.31
2023-04-21T14:15:08.073Z,101071.25
2023-04-21T14:17:34.690Z,101064.59
2023-04-21T14:20:01.383Z,101071.19
2023-04-21T14:22:28.330Z,101068.19
2023-04-21T14:24:54.897Z,101076.81
2023-04-21T14:27:21.678Z,101058.03
2023-04-21T14:29:48.199Z,101061.69
2023-04-21T14:32:14.902Z,101050.47
2023-04-21T14:34:41.562Z,101051.53
2023-04-21T14:37:08.115Z,101048.56
2023-04-21T14:39:34.832Z,101046.00
2023-04-21T14:42:01.867Z,101035.88
2023-04-21T14:44:28.694Z,101037.16
2023-04-21T14:47:06.134Z,101044.91
2023-04-21T14:49:36.381Z,101030.63
2023-04-21T14:52:03.709Z,101024.91
2023-04-21T14:54:30.413Z,101018.88
2023-04-21T14:57:10.504Z,101018.19
2023-04-21T14:59:37.482Z,101019.25
2023-04-21T15:02:04.517Z,101013.59
2023-04-21T15:04:31.321Z,101013.59
2023-04-21T15:06:58.122Z,101015.84
2023-04-21T15:09:25.248Z,101012.28
2023-04-21T15:11:51.960Z,101003.84
2023-04-21T15:14:18.636Z,101009.97
2023-04-21T15:16:45.219Z,101000.72
2023-04-21T15:19:11.836Z,101005.56
2023-04-21T15:21:38.425Z,100999.44
2023-04-21T15:24:05.013Z,101012.84
2023-04-21T15:26:31.599Z,100999.63
2023-04-21T15:28:58.083Z,101007.59
2023-04-21T15:31:24.633Z,100993.19
2023-04-21T15:33:51.275Z,100993.16
2023-04-21T15:36:17.774Z,100987.88
2023-04-21T15:38:45.025Z,100983.81
2023-04-21T15:41:11.806Z,100983.97
2023-04-21T15:43:38.419Z,100980.63
2023-04-21T15:46:12.992Z,100974.69
2023-04-21T15:48:41.257Z,100974.38
2023-04-21T15:51:13.683Z,100965.47
2023-04-21T15:53:47.376Z,100972.81
2023-04-21T15:56:17.897Z,100967.22
2023-04-21T15:58:44.642Z,100971.28
2023-04-21T16:01:11.520Z,100967.34
2023-04-21T16:03:40.241Z,100964.63
2023-04-21T16:06:07.349Z,100972.72
2023-04-21T16:08:34.115Z,100968.63
2023-04-21T16:11:01.039Z,100966.06
2023-04-21T16:13:27.905Z,100958.03
2023-04-21T16:15:54.751Z,100960.44
2023-04-21T16:18:21.481Z,100951.50
2023-04-21T16:20:48.231Z,100954.28
2023-04-21T16:23:15.155Z,100948.38
2023-04-21T16:25:42.169Z,100942.97
2023-04-21T16:28:09.758Z,100945.28
2023-04-21T16:30:36.624Z,100944.28
2023-04-21T16:33:03.166Z,100939.47
2023-04-21T16:35:29.889Z,100941.06
2023-04-21T16:37:56.602Z,100938.53
2023-04-21T16:40:24.198Z,100937.84
2023-04-21T16:42:50.984Z,100940.97
2023-04-21T16:45:17.595Z,100934.78
2023-04-21T16:47:44.298Z,100937.31
2023-04-21T16:50:11.237Z,100934.94
2023-04-21T16:52:37.885Z,100932.09
2023-04-21T16:55:04.690Z,100928.81
2023-04-21T16:57:31.332Z,100924.84
2023-04-21T16:59:59.154Z,100925.09
2023-04-21T17:02:26.086Z,100923.09
2023-04-21T17:04:52.836Z,100921.47
2023-04-21T17:07:19.449Z,100923.09
2023-04-21T17:09:46.045Z,100931.13
2023-04-21T17:12:12.601Z,100929.56
2023-04-21T17:14:39.561Z,100925.56
2023-04-21T17:17:06.355Z,100925.38
2023-04-21T17:19:33.032Z,100922.00
2023-04-21T17:21:59.556Z,100926.84
2023-04-21T17:24:26.207Z,100921.34
2023-04-21T17:26:53.207Z,100923.13
2023-04-21T17:29:20.083Z,100921.88
2023-04-21T17:31:46.773Z,100924.53
2023-04-21T17:34:13.398Z,100923.94
2023-04-21T17:36:40.708Z,100930.47
2023-04-21T17:39:08.265Z,100936.53
2023-04-21T17:41:34.800Z,100936.66
2023-04-21T17:44:01.379Z,100930.97
2023-04-21T17:46:27.954Z,100935.16
2023-04-21T17:48:54.572Z,100935.13
2023-04-21T17:51:21.206Z,100932.94
2023-04-21T17:53:47.792Z,100936.19
2023-04-21T17:56:14.643Z,100931.72
2023-04-21T17:58:41.626Z,100929.84
2023-04-21T18:01:08.358Z,100932.63
2023-04-21T18:03:41.292Z,100929.22
2023-04-21T18:06:10.482Z,100925.22
2023-04-21T18:08:37.941Z,100927.06
2023-04-21T18:11:04.512Z,100926.75
2023-04-21T18:13:31.074Z,100929.50
2023-04-21T18:15:57.918Z,100929.28
2023-04-21T18:18:24.680Z,100938.75
2023-04-21T18:20:51.278Z,100936.97
2023-04-21T18:23:17.828Z,100932.44
2023-04-21T18:25:44.436Z,100935.13
2023-04-21T18:28:14.323Z,100942.09
2023-04-21T18:30:41.065Z,100933.00
2023-04-21T18:33:07.894Z,100935.91
2023-04-21T18:35:34.420Z,100934.66
2023-04-21T18:38:01.209Z,100937.75
2023-04-21T18:40:27.840Z,100935.84
2023-04-21T18:42:54.533Z,100933.84
2023-04-21T18:45:21.199Z,100935.84
2023-04-21T18:47:47.832Z,100933.78
2023-04-21T18:50:14.455Z,100932.91
2023-04-21T18:52:41.013Z,100937.31
2023-04-21T18:55:07.928Z,100931.59
2023-04-21T18:57:34.468Z,100930.63
2023-04-21T19:00:01.028Z,100941.59
2023-04-21T19:02:28.989Z,100928.47
2023-04-21T19:04:55.677Z,100929.69
2023-04-21T19:07:22.215Z,100933.66
2023-04-21T19:09:48.715Z,100931.81
2023-04-21T19:12:15.985Z,100932.25
2023-04-21T19:14:47.093Z,100927.41
2023-04-21T19:17:14.862Z,100928.31
2023-04-21T19:19:41.889Z,100929.59
2023-04-21T19:22:08.496Z,100922.38
2023-04-21T19:24:35.798Z,100919.88
2023-04-21T19:27:02.699Z,100923.22
2023-04-21T19:29:30.357Z,100933.66
2023-04-21T19:31:56.967Z,100918.56
2023-04-21T19:34:23.486Z,100922.13
2023-04-21T19:36:51.638Z,100930.56
2023-04-21T19:39:18.222Z,100927.00
2023-04-21T19:41:44.727Z,100928.66
2023-04-21T19:44:11.241Z,100928.00
2023-04-21T19:46:37.856Z,100923.34
2023-04-21T19:49:04.442Z,100930.03
2023-04-21T19:51:31.064Z,100931.47
2023-04-21T19:54:07.857Z,100930.69
2023-04-21T19:56:38.066Z,100931.34
2023-04-21T19:59:05.573Z,100927.31
2023-04-21T20:01:33.235Z,100928.97
2023-04-21T20:04:00.768Z,100932.25
2023-04-21T20:06:28.600Z,100934.19
2023-04-21T20:08:55.468Z,100939.41
2023-04-21T20:11:21.993Z,100936.94
2023-04-21T20:13:48.811Z,100937.06
2023-04-21T20:16:17.344Z,100936.41
2023-04-21T20:18:43.941Z,100942.72
2023-04-21T20:21:10.914Z,100936.19
2023-04-21T20:23:37.475Z,100938.63
2023-04-21T20:26:03.962Z,100940.22
2023-04-21T20:28:30.525Z,100940.75
2023-04-21T20:30:57.010Z,100942.06
2023-04-21T20:33:23.752Z,100940.97
2023-04-21T20:35:50.292Z,100935.78
2023-04-21T20:38:16.876Z,100942.66
2023-04-21T20:40:43.566Z,100942.72
2023-04-21T20:43:12.328Z,100936.19
2023-04-21T20:45:41.253Z,100945.28
2023-04-21T20:48:07.967Z,100945.84
2023-04-21T20:50:34.631Z,100940.84
2023-04-21T20:53:02.294Z,100946.06
2023-04-21T20:55:28.839Z,100945.28
2023-04-21T20:57:55.342Z,100945.16
2023-04-21T21:00:21.919Z,100947.47
2023-04-21T21:02:48.728Z,100942.72
2023-04-21T21:05:15.471Z,100943.16
2023-04-21T21:07:42.117Z,100947.78
2023-04-21T21:10:10.911Z,100943.03
2023-04-21T21:12:37.530Z,100944.59
2023-04-21T21:15:05.426Z,100938.81
2023-04-21T21:17:32.101Z,100943.59
2023-04-21T21:19:58.767Z,100943.78
2023-04-21T21:22:25.491Z,100955.22
2023-04-21T21:24:51.998Z,100958.25
2023-04-21T21:27:18.534Z,100956.78
2023-04-21T21:29:45.160Z,100956.44
2023-04-21T21:32:11.915Z,100956.78
2023-04-21T21:34:38.667Z,100960.09
2023-04-21T21:37:05.580Z,100956.97
2023-04-21T21:39:32.242Z,100958.44
2023-04-21T21:41:58.885Z,100949.91
2023-04-21T21:44:25.580Z,100955.63
2023-04-21T21:46:52.265Z,100957.25
2023-04-21T21:49:18.834Z,100956.84
2023-04-21T21:51:45.548Z,100954.50
2023-04-21T21:54:12.067Z,100961.94
2023-04-21T21:56:39.057Z,100957.38
2023-04-21T21:59:06.993Z,100963.00
2023-04-21T22:01:33.532Z,100962.22
2023-04-21T22:04:00.183Z,100962.75
2023-04-21T22:06:27.753Z,100968.81
2023-04-21T22:08:54.317Z,100961.06
2023-04-21T22:11:20.871Z,100962.19
2023-04-21T22:13:47.488Z,100967.34
2023-04-21T22:16:14.037Z,100968.13
2023-04-21T22:18:40.553Z,100955.94
2023-04-21T22:21:07.371Z,100966.09
2023-04-21T22:23:33.864Z,100968.16
2023-04-21T22:26:00.579Z,100972.91
2023-04-21T22:28:27.111Z,100970.50
2023-04-21T22:30:53.830Z,100974.91
2023-04-21T22:33:20.387Z,100971.81
2023-04-21T22:35:46.898Z,100975.19
2023-04-21T22:38:13.437Z,100976.78
2023-04-21T22:40:40.005Z,100977.56
2023-04-21T22:43:06.609Z,100980.06
2023-04-21T22:45:33.220Z,100976.44
2023-04-21T22:47:59.747Z,100982.56
2023-04-21T22:50:26.392Z,100981.34
2023-04-21T22:52:53.335Z,100975.50
2023-04-21T22:55:19.932Z,100984.72
2023-04-21T22:57:46.533Z,100978.84
2023-04-21T23:00:13.320Z,100987.66
2023-04-21T23:02:39.961Z,100978.66
2023-04-21T23:05:06.877Z,100977.91
2023-04-21T23:07:33.448Z,100984.28
2023-04-21T23:10:00.014Z,100980.81
2023-04-21T23:12:26.662Z,100987.22
2023-04-21T23:14:53.303Z,100986.41
2023-04-21T23:17:19.865Z,100989.34
2023-04-21T23:19:46.463Z,100975.19
2023-04-21T23:22:13.045Z,100975.78
2023-04-21T23:24:39.585Z,100975.72
2023-04-21T23:27:06.141Z,100974.84
2023-04-21T23:29:32.725Z,100975.00
2023-04-21T23:31:59.305Z,100970.06
2023-04-21T23:34:25.922Z,100978.34
2023-04-21T23:36:52.421Z,100976.13
2023-04-21T23:39:21.495Z,100980.09
2023-04-21T23:41:48.086Z,100972.69
2023-04-21T23:44:14.651Z,100974.44
2023-04-21T23:46:41.625Z,100970.59
2023-04-21T23:49:08.297Z,100970.94
2023-04-21T23:51:34.830Z,100970.53
2023-04-21T23:54:02.166Z,100976.09
2023-04-21T23:56:29.077Z,100970.94
2023-04-21T23:58:55.644Z,100964.28
